sensor_id;sensor_type;location;lat;lon;timestamp;temperature;humidity
18577;DHT22;9418;52.694;13.294;2022-08-25T00:00:07;18.70;47.00
18577;DHT22;9418;52.694;13.294;2022-08-25T00:02:34;18.70;43.70
18577;DHT22;9418;52.694;13.294;2022-08-25T00:05:00;18.70;46.60
18577;DHT22;9418;52.694;13.294;2022-08-25T00:07:27;18.60;47.60
18577;DHT22;9418;52.694;13.294;2022-08-25T00:09:54;18.60;47.60
18577;DHT22;9418;52.694;13.294;2022-08-25T00:12:20;18.60;44.60
18577;DHT22;9418;52.694;13.294;2022-08-25T00:14:48;18.60;41.10
18577;DHT22;9418;52.694;13.294;2022-08-25T00:17:15;18.60;41.20
18577;DHT22;9418;52.694;13.294;2022-08-25T00:19:41;18.60;41.80
18577;DHT22;9418;52.694;13.294;2022-08-25T00:22:08;18.60;39.90
18577;DHT22;9418;52.694;13.294;2022-08-25T00:24:35;18.60;40.50
18577;DHT22;9418;52.694;13.294;2022-08-25T00:27:03;18.50;36.70
18577;DHT22;9418;52.694;13.294;2022-08-25T00:29:31;18.50;36.50
18577;DHT22;9418;52.694;13.294;2022-08-25T00:32:00;18.50;35.30
18577;DHT22;9418;52.694;13.294;2022-08-25T00:34:30;18.50;36.30
18577;DHT22;9418;52.694;13.294;2022-08-25T00:36:58;18.40;39.30
18577;DHT22;9418;52.694;13.294;2022-08-25T00:39:25;18.40;36.10
18577;DHT22;9418;52.694;13.294;2022-08-25T00:41:54;18.40;31.60
18577;DHT22;9418;52.694;13.294;2022-08-25T00:44:23;18.40;32.90
18577;DHT22;9418;52.694;13.294;2022-08-25T00:46:52;18.40;35.50
18577;DHT22;9418;52.694;13.294;2022-08-25T00:49:24;18.30;33.80
18577;DHT22;9418;52.694;13.294;2022-08-25T00:51:56;18.30;34.00
18577;DHT22;9418;52.694;13.294;2022-08-25T00:54:27;18.30;30.50
18577;DHT22;9418;52.694;13.294;2022-08-25T00:56:55;18.30;31.80
18577;DHT22;9418;52.694;13.294;2022-08-25T00:59:23;18.30;31.40
18577;DHT22;9418;52.694;13.294;2022-08-25T01:01:50;18.30;29.20
18577;DHT22;9418;52.694;13.294;2022-08-25T01:04:19;18.20;30.40
18577;DHT22;9418;52.694;13.294;2022-08-25T01:06:47;18.30;29.90
18577;DHT22;9418;52.694;13.294;2022-08-25T01:09:15;18.30;29.90
18577;DHT22;9418;52.694;13.294;2022-08-25T01:11:43;18.20;28.70
18577;DHT22;9418;52.694;13.294;2022-08-25T01:14:11;18.20;27.50
18577;DHT22;9418;52.694;13.294;2022-08-25T01:16:39;18.20;27.70
18577;DHT22;9418;52.694;13.294;2022-08-25T01:19:09;18.20;26.60
18577;DHT22;9418;52.694;13.294;2022-08-25T01:21:40;18.20;25.10
18577;DHT22;9418;52.694;13.294;2022-08-25T01:24:09;18.20;23.40
18577;DHT22;9418;52.694;13.294;2022-08-25T01:26:36;18.10;23.00
18577;DHT22;9418;52.694;13.294;2022-08-25T01:29:05;18.20;20.10
18577;DHT22;9418;52.694;13.294;2022-08-25T01:31:52;18.20;74.00
18577;DHT22;9418;52.694;13.294;2022-08-25T01:34:20;18.20;86.40
18577;DHT22;9418;52.694;13.294;2022-08-25T01:36:48;18.10;96.50
18577;DHT22;9418;52.694;13.294;2022-08-25T01:39:15;18.10;89.80
18577;DHT22;9418;52.694;13.294;2022-08-25T01:41:49;18.10;99.90
18577;DHT22;9418;52.694;13.294;2022-08-25T01:44:19;18.10;99.90
18577;DHT22;9418;52.694;13.294;2022-08-25T01:46:46;18.00;96.90
18577;DHT22;9418;52.694;13.294;2022-08-25T01:49:13;18.00;95.60
18577;DHT22;9418;52.694;13.294;2022-08-25T01:51:43;18.00;84.00
18577;DHT22;9418;52.694;13.294;2022-08-25T01:54:13;18.00;86.10
18577;DHT22;9418;52.694;13.294;2022-08-25T01:56:40;17.90;84.40
18577;DHT22;9418;52.694;13.294;2022-08-25T01:59:06;17.90;87.80
18577;DHT22;9418;52.694;13.294;2022-08-25T02:01:33;17.90;99.10
18577;DHT22;9418;52.694;13.294;2022-08-25T02:03:59;17.90;99.90
18577;DHT22;9418;52.694;13.294;2022-08-25T02:06:29;17.90;99.90
18577;DHT22;9418;52.694;13.294;2022-08-25T02:08:59;17.90;99.90
18577;DHT22;9418;52.694;13.294;2022-08-25T02:11:28;17.90;99.90
18577;DHT22;9418;52.694;13.294;2022-08-25T02:13:54;17.90;99.90
18577;DHT22;9418;52.694;13.294;2022-08-25T02:16:24;17.90;99.90
18577;DHT22;9418;52.694;13.294;2022-08-25T02:18:52;17.90;99.90
18577;DHT22;9418;52.694;13.294;2022-08-25T02:21:19;17.90;99.90
18577;DHT22;9418;52.694;13.294;2022-08-25T02:23:46;17.90;99.90
18577;DHT22;9418;52.694;13.294;2022-08-25T02:26:13;17.90;99.90
18577;DHT22;9418;52.694;13.294;2022-08-25T02:28:42;17.90;99.90
18577;DHT22;9418;52.694;13.294;2022-08-25T02:31:09;17.90;99.90
18577;DHT22;9418;52.694;13.294;2022-08-25T02:33:35;17.90;99.90
18577;DHT22;9418;52.694;13.294;2022-08-25T02:36:02;17.90;99.90
18577;DHT22;9418;52.694;13.294;2022-08-25T02:38:29;17.90;99.90
18577;DHT22;9418;52.694;13.294;2022-08-25T02:40:57;17.90;99.90
18577;DHT22;9418;52.694;13.294;2022-08-25T02:43:25;17.90;99.90
18577;DHT22;9418;52.694;13.294;2022-08-25T02:45:53;17.90;99.90
18577;DHT22;9418;52.694;13.294;2022-08-25T02:48:20;17.80;99.90
18577;DHT22;9418;52.694;13.294;2022-08-25T02:50:48;17.90;99.90
18577;DHT22;9418;52.694;13.294;2022-08-25T02:53:16;17.90;99.90
18577;DHT22;9418;52.694;13.294;2022-08-25T02:55:42;17.90;99.90
18577;DHT22;9418;52.694;13.294;2022-08-25T02:58:09;17.90;99.90
18577;DHT22;9418;52.694;13.294;2022-08-25T03:00:36;17.90;99.90
18577;DHT22;9418;52.694;13.294;2022-08-25T03:03:04;17.90;99.90
18577;DHT22;9418;52.694;13.294;2022-08-25T03:05:31;17.90;99.90
18577;DHT22;9418;52.694;13.294;2022-08-25T03:07:58;17.90;99.90
18577;DHT22;9418;52.694;13.294;2022-08-25T03:10:25;17.90;99.90
18577;DHT22;9418;52.694;13.294;2022-08-25T03:12:51;17.90;99.90
18577;DHT22;9418;52.694;13.294;2022-08-25T03:15:18;17.90;99.90
18577;DHT22;9418;52.694;13.294;2022-08-25T03:17:45;17.90;99.90
18577;DHT22;9418;52.694;13.294;2022-08-25T03:20:15;17.90;99.90
18577;DHT22;9418;52.694;13.294;2022-08-25T03:22:42;17.90;99.90
18577;DHT22;9418;52.694;13.294;2022-08-25T03:25:09;17.90;99.90
18577;DHT22;9418;52.694;13.294;2022-08-25T03:27:54;17.80;99.90
18577;DHT22;9418;52.694;13.294;2022-08-25T03:30:20;17.80;99.90
18577;DHT22;9418;52.694;13.294;2022-08-25T03:32:47;17.80;99.90
18577;DHT22;9418;52.694;13.294;2022-08-25T03:35:15;17.80;99.90
18577;DHT22;9418;52.694;13.294;2022-08-25T03:37:41;17.80;99.90
18577;DHT22;9418;52.694;13.294;2022-08-25T03:40:10;17.80;99.90
18577;DHT22;9418;52.694;13.294;2022-08-25T03:42:39;17.80;99.90
18577;DHT22;9418;52.694;13.294;2022-08-25T03:45:07;17.80;99.90
18577;DHT22;9418;52.694;13.294;2022-08-25T03:47:36;17.70;99.90
18577;DHT22;9418;52.694;13.294;2022-08-25T03:50:03;17.70;99.90
18577;DHT22;9418;52.694;13.294;2022-08-25T03:52:31;17.70;99.90
18577;DHT22;9418;52.694;13.294;2022-08-25T03:54:58;17.70;99.90
18577;DHT22;9418;52.694;13.294;2022-08-25T03:57:25;17.70;99.90
18577;DHT22;9418;52.694;13.294;2022-08-25T03:59:52;17.70;99.90
18577;DHT22;9418;52.694;13.294;2022-08-25T04:02:18;17.70;99.90
18577;DHT22;9418;52.694;13.294;2022-08-25T04:04:45;17.70;99.90
18577;DHT22;9418;52.694;13.294;2022-08-25T04:07:11;17.70;99.90
18577;DHT22;9418;52.694;13.294;2022-08-25T04:09:39;17.70;99.90
18577;DHT22;9418;52.694;13.294;2022-08-25T04:12:07;17.70;99.90
18577;DHT22;9418;52.694;13.294;2022-08-25T04:14:34;17.70;99.90
18577;DHT22;9418;52.694;13.294;2022-08-25T04:17:01;17.70;99.90
18577;DHT22;9418;52.694;13.294;2022-08-25T04:19:28;17.70;99.90
18577;DHT22;9418;52.694;13.294;2022-08-25T04:21:54;17.70;99.90
18577;DHT22;9418;52.694;13.294;2022-08-25T04:24:21;17.70;99.90
18577;DHT22;9418;52.694;13.294;2022-08-25T04:26:50;17.70;99.90
18577;DHT22;9418;52.694;13.294;2022-08-25T04:29:19;17.70;99.90
18577;DHT22;9418;52.694;13.294;2022-08-25T04:31:47;17.70;99.90
18577;DHT22;9418;52.694;13.294;2022-08-25T04:34:14;17.70;99.90
18577;DHT22;9418;52.694;13.294;2022-08-25T04:36:41;17.70;99.90
18577;DHT22;9418;52.694;13.294;2022-08-25T04:39:08;17.80;99.90
18577;DHT22;9418;52.694;13.294;2022-08-25T04:41:34;17.80;99.90
18577;DHT22;9418;52.694;13.294;2022-08-25T04:44:03;17.80;99.90
18577;DHT22;9418;52.694;13.294;2022-08-25T04:46:31;17.80;99.90
18577;DHT22;9418;52.694;13.294;2022-08-25T04:48:59;17.80;99.90
18577;DHT22;9418;52.694;13.294;2022-08-25T04:51:30;17.90;99.90
18577;DHT22;9418;52.694;13.294;2022-08-25T04:53:58;17.90;99.90
18577;DHT22;9418;52.694;13.294;2022-08-25T04:56:25;17.90;99.90
18577;DHT22;9418;52.694;13.294;2022-08-25T04:58:54;17.90;1.40
18577;DHT22;9418;52.694;13.294;2022-08-25T05:01:24;18.00;99.90
18577;DHT22;9418;52.694;13.294;2022-08-25T05:03:53;17.90;99.90
18577;DHT22;9418;52.694;13.294;2022-08-25T05:06:20;17.90;99.90
18577;DHT22;9418;52.694;13.294;2022-08-25T05:08:47;18.00;99.90
18577;DHT22;9418;52.694;13.294;2022-08-25T05:11:14;18.00;99.90
18577;DHT22;9418;52.694;13.294;2022-08-25T05:13:42;18.00;99.90
18577;DHT22;9418;52.694;13.294;2022-08-25T05:16:09;18.00;99.90
18577;DHT22;9418;52.694;13.294;2022-08-25T05:18:37;18.10;99.90
18577;DHT22;9418;52.694;13.294;2022-08-25T05:21:06;18.10;99.90
18577;DHT22;9418;52.694;13.294;2022-08-25T05:23:34;18.10;99.90
18577;DHT22;9418;52.694;13.294;2022-08-25T05:26:02;18.10;99.90
18577;DHT22;9418;52.694;13.294;2022-08-25T05:28:30;18.20;99.90
18577;DHT22;9418;52.694;13.294;2022-08-25T05:30:58;18.20;99.90
18577;DHT22;9418;52.694;13.294;2022-08-25T05:33:24;18.20;99.90
18577;DHT22;9418;52.694;13.294;2022-08-25T05:35:52;18.20;99.90
18577;DHT22;9418;52.694;13.294;2022-08-25T05:38:19;18.20;99.90
18577;DHT22;9418;52.694;13.294;2022-08-25T05:40:46;18.20;99.90
18577;DHT22;9418;52.694;13.294;2022-08-25T05:43:12;18.20;99.90
18577;DHT22;9418;52.694;13.294;2022-08-25T05:45:40;18.30;99.90
18577;DHT22;9418;52.694;13.294;2022-08-25T05:48:06;18.30;99.90
18577;DHT22;9418;52.694;13.294;2022-08-25T05:50:33;18.30;99.90
18577;DHT22;9418;52.694;13.294;2022-08-25T05:53:01;18.30;99.90
18577;DHT22;9418;52.694;13.294;2022-08-25T05:55:28;18.40;99.90
18577;DHT22;9418;52.694;13.294;2022-08-25T05:57:54;18.40;99.90
18577;DHT22;9418;52.694;13.294;2022-08-25T06:00:21;18.30;99.90
18577;DHT22;9418;52.694;13.294;2022-08-25T06:02:48;18.40;99.90
18577;DHT22;9418;52.694;13.294;2022-08-25T06:05:16;18.40;99.90
18577;DHT22;9418;52.694;13.294;2022-08-25T06:07:44;18.50;99.90
18577;DHT22;9418;52.694;13.294;2022-08-25T06:10:12;18.50;99.90
18577;DHT22;9418;52.694;13.294;2022-08-25T06:12:41;18.50;99.90
18577;DHT22;9418;52.694;13.294;2022-08-25T06:15:10;18.50;99.90
18577;DHT22;9418;52.694;13.294;2022-08-25T06:17:36;18.50;99.90
18577;DHT22;9418;52.694;13.294;2022-08-25T06:20:07;18.50;99.90
18577;DHT22;9418;52.694;13.294;2022-08-25T06:22:34;18.50;99.90
18577;DHT22;9418;52.694;13.294;2022-08-25T06:25:03;18.50;99.90
18577;DHT22;9418;52.694;13.294;2022-08-25T06:27:31;18.50;99.90
18577;DHT22;9418;52.694;13.294;2022-08-25T06:29:58;18.50;99.90
18577;DHT22;9418;52.694;13.294;2022-08-25T06:32:29;18.60;99.90
18577;DHT22;9418;52.694;13.294;2022-08-25T06:34:56;18.60;99.90
18577;DHT22;9418;52.694;13.294;2022-08-25T06:37:23;18.60;99.90
18577;DHT22;9418;52.694;13.294;2022-08-25T06:39:50;18.60;99.90
18577;DHT22;9418;52.694;13.294;2022-08-25T06:42:16;18.60;99.90
18577;DHT22;9418;52.694;13.294;2022-08-25T06:44:45;18.70;99.90
18577;DHT22;9418;52.694;13.294;2022-08-25T06:47:11;18.70;99.90
18577;DHT22;9418;52.694;13.294;2022-08-25T06:49:39;18.80;99.90
18577;DHT22;9418;52.694;13.294;2022-08-25T06:52:07;18.80;99.90
18577;DHT22;9418;52.694;13.294;2022-08-25T06:54:34;18.90;99.90
18577;DHT22;9418;52.694;13.294;2022-08-25T06:57:01;18.80;99.90
18577;DHT22;9418;52.694;13.294;2022-08-25T06:59:28;18.90;99.90
18577;DHT22;9418;52.694;13.294;2022-08-25T07:01:56;18.90;99.90
18577;DHT22;9418;52.694;13.294;2022-08-25T07:04:23;18.90;99.90
18577;DHT22;9418;52.694;13.294;2022-08-25T07:06:50;19.00;99.90
18577;DHT22;9418;52.694;13.294;2022-08-25T07:09:17;19.00;99.90
18577;DHT22;9418;52.694;13.294;2022-08-25T07:11:44;19.00;99.90
18577;DHT22;9418;52.694;13.294;2022-08-25T07:14:13;19.10;99.90
18577;DHT22;9418;52.694;13.294;2022-08-25T07:16:42;19.20;99.90
18577;DHT22;9418;52.694;13.294;2022-08-25T07:19:10;19.20;99.90
18577;DHT22;9418;52.694;13.294;2022-08-25T07:21:38;19.30;99.90
18577;DHT22;9418;52.694;13.294;2022-08-25T07:24:08;19.20;99.90
18577;DHT22;9418;52.694;13.294;2022-08-25T07:26:36;19.30;99.90
18577;DHT22;9418;52.694;13.294;2022-08-25T07:29:05;19.30;99.90
18577;DHT22;9418;52.694;13.294;2022-08-25T07:31:32;19.30;99.90
18577;DHT22;9418;52.694;13.294;2022-08-25T07:33:58;19.40;99.90
18577;DHT22;9418;52.694;13.294;2022-08-25T07:36:40;19.40;99.90
18577;DHT22;9418;52.694;13.294;2022-08-25T07:39:07;19.40;99.90
18577;DHT22;9418;52.694;13.294;2022-08-25T07:41:36;19.50;99.90
18577;DHT22;9418;52.694;13.294;2022-08-25T07:44:03;19.50;99.90
18577;DHT22;9418;52.694;13.294;2022-08-25T07:46:29;19.60;99.90
18577;DHT22;9418;52.694;13.294;2022-08-25T07:48:56;19.60;99.90
18577;DHT22;9418;52.694;13.294;2022-08-25T07:51:23;19.60;99.90
18577;DHT22;9418;52.694;13.294;2022-08-25T07:53:51;19.70;99.90
18577;DHT22;9418;52.694;13.294;2022-08-25T07:56:17;19.70;99.90
18577;DHT22;9418;52.694;13.294;2022-08-25T07:58:45;19.70;99.90
18577;DHT22;9418;52.694;13.294;2022-08-25T08:01:12;19.70;99.90
18577;DHT22;9418;52.694;13.294;2022-08-25T08:03:39;19.70;99.90
18577;DHT22;9418;52.694;13.294;2022-08-25T08:06:07;19.80;99.90
18577;DHT22;9418;52.694;13.294;2022-08-25T08:08:35;19.80;99.90
18577;DHT22;9418;52.694;13.294;2022-08-25T08:11:04;19.90;99.90
18577;DHT22;9418;52.694;13.294;2022-08-25T08:13:31;19.90;99.90
18577;DHT22;9418;52.694;13.294;2022-08-25T08:15:58;20.00;99.90
18577;DHT22;9418;52.694;13.294;2022-08-25T08:18:24;20.00;99.90
18577;DHT22;9418;52.694;13.294;2022-08-25T08:20:51;20.00;99.90
18577;DHT22;9418;52.694;13.294;2022-08-25T08:23:18;20.00;99.90
18577;DHT22;9418;52.694;13.294;2022-08-25T08:25:45;20.00;99.90
18577;DHT22;9418;52.694;13.294;2022-08-25T08:28:13;20.00;99.90
18577;DHT22;9418;52.694;13.294;2022-08-25T08:30:40;20.10;99.90
18577;DHT22;9418;52.694;13.294;2022-08-25T08:33:07;20.10;99.90
18577;DHT22;9418;52.694;13.294;2022-08-25T08:35:33;20.10;99.90
18577;DHT22;9418;52.694;13.294;2022-08-25T08:38:00;20.20;99.90
18577;DHT22;9418;52.694;13.294;2022-08-25T08:40:27;20.30;99.90
18577;DHT22;9418;52.694;13.294;2022-08-25T08:43:00;20.40;99.90
18577;DHT22;9418;52.694;13.294;2022-08-25T08:45:34;20.40;99.90
18577;DHT22;9418;52.694;13.294;2022-08-25T08:48:13;20.50;99.90
18577;DHT22;9418;52.694;13.294;2022-08-25T08:50:47;20.50;99.90
18577;DHT22;9418;52.694;13.294;2022-08-25T08:53:21;20.50;99.90
18577;DHT22;9418;52.694;13.294;2022-08-25T08:55:52;20.60;99.90
18577;DHT22;9418;52.694;13.294;2022-08-25T08:58:21;20.60;99.90
18577;DHT22;9418;52.694;13.294;2022-08-25T09:00:53;20.70;99.90
18577;DHT22;9418;52.694;13.294;2022-08-25T09:03:28;20.70;99.90
18577;DHT22;9418;52.694;13.294;2022-08-25T09:06:01;20.70;20.30
18577;DHT22;9418;52.694;13.294;2022-08-25T09:08:28;20.70;29.90
18577;DHT22;9418;52.694;13.294;2022-08-25T09:11:00;20.70;30.60
18577;DHT22;9418;52.694;13.294;2022-08-25T09:13:35;20.80;28.10
18577;DHT22;9418;52.694;13.294;2022-08-25T09:16:10;20.90;30.40
18577;DHT22;9418;52.694;13.294;2022-08-25T09:19:09;21.00;35.90
18577;DHT22;9418;52.694;13.294;2022-08-25T09:21:43;21.10;40.90
18577;DHT22;9418;52.694;13.294;2022-08-25T09:24:33;21.20;42.80
18577;DHT22;9418;52.694;13.294;2022-08-25T09:27:11;21.40;46.70
18577;DHT22;9418;52.694;13.294;2022-08-25T09:29:50;21.50;94.70
18577;DHT22;9418;52.694;13.294;2022-08-25T09:32:21;21.70;96.00
18577;DHT22;9418;52.694;13.294;2022-08-25T09:34:49;21.70;99.90
18577;DHT22;9418;52.694;13.294;2022-08-25T09:37:17;21.80;99.90
18577;DHT22;9418;52.694;13.294;2022-08-25T09:39:44;21.90;99.90
18577;DHT22;9418;52.694;13.294;2022-08-25T09:42:10;21.90;99.90
18577;DHT22;9418;52.694;13.294;2022-08-25T09:44:39;21.90;99.90
18577;DHT22;9418;52.694;13.294;2022-08-25T09:47:18;21.90;99.90
18577;DHT22;9418;52.694;13.294;2022-08-25T09:49:49;22.00;99.90
18577;DHT22;9418;52.694;13.294;2022-08-25T09:52:33;22.10;99.90
18577;DHT22;9418;52.694;13.294;2022-08-25T09:55:20;22.10;99.90
18577;DHT22;9418;52.694;13.294;2022-08-25T09:57:50;22.30;99.90
18577;DHT22;9418;52.694;13.294;2022-08-25T10:00:20;22.30;99.90
18577;DHT22;9418;52.694;13.294;2022-08-25T10:03:05;22.30;99.90
18577;DHT22;9418;52.694;13.294;2022-08-25T10:05:38;22.30;99.90
18577;DHT22;9418;52.694;13.294;2022-08-25T10:08:11;22.40;99.90
18577;DHT22;9418;52.694;13.294;2022-08-25T10:10:43;22.30;99.90
18577;DHT22;9418;52.694;13.294;2022-08-25T10:13:16;22.20;99.90
18577;DHT22;9418;52.694;13.294;2022-08-25T10:15:43;22.30;99.90
18577;DHT22;9418;52.694;13.294;2022-08-25T10:18:19;22.40;99.90
18577;DHT22;9418;52.694;13.294;2022-08-25T10:21:02;22.40;99.90
18577;DHT22;9418;52.694;13.294;2022-08-25T10:23:29;22.60;99.90
18577;DHT22;9418;52.694;13.294;2022-08-25T10:26:01;22.80;99.90
18577;DHT22;9418;52.694;13.294;2022-08-25T10:28:33;23.00;99.90
18577;DHT22;9418;52.694;13.294;2022-08-25T10:31:10;23.30;99.90
18577;DHT22;9418;52.694;13.294;2022-08-25T10:33:44;23.40;37.70
18577;DHT22;9418;52.694;13.294;2022-08-25T10:36:20;23.60;52.50
18577;DHT22;9418;52.694;13.294;2022-08-25T10:38:51;23.80;62.00
18577;DHT22;9418;52.694;13.294;2022-08-25T10:41:30;24.00;74.10
18577;DHT22;9418;52.694;13.294;2022-08-25T10:44:07;24.30;78.70
18577;DHT22;9418;52.694;13.294;2022-08-25T10:47:09;24.50;99.90
18577;DHT22;9418;52.694;13.294;2022-08-25T10:49:42;24.50;99.90
18577;DHT22;9418;52.694;13.294;2022-08-25T10:52:16;24.60;99.90
18577;DHT22;9418;52.694;13.294;2022-08-25T10:54:51;24.70;99.90
18577;DHT22;9418;52.694;13.294;2022-08-25T10:57:22;24.90;99.90
18577;DHT22;9418;52.694;13.294;2022-08-25T10:59:59;25.10;99.90
18577;DHT22;9418;52.694;13.294;2022-08-25T11:02:52;25.10;99.90
18577;DHT22;9418;52.694;13.294;2022-08-25T11:05:26;25.10;99.90
18577;DHT22;9418;52.694;13.294;2022-08-25T11:08:00;25.20;99.90
18577;DHT22;9418;52.694;13.294;2022-08-25T11:10:36;25.00;99.90
18577;DHT22;9418;52.694;13.294;2022-08-25T11:13:09;24.90;99.90
18577;DHT22;9418;52.694;13.294;2022-08-25T11:15:44;24.90;99.90
18577;DHT22;9418;52.694;13.294;2022-08-25T11:18:14;24.80;99.90
18577;DHT22;9418;52.694;13.294;2022-08-25T11:20:44;24.80;99.90
18577;DHT22;9418;52.694;13.294;2022-08-25T11:23:16;24.80;99.90
18577;DHT22;9418;52.694;13.294;2022-08-25T11:25:50;24.90;99.90
18577;DHT22;9418;52.694;13.294;2022-08-25T11:28:22;24.90;99.90
18577;DHT22;9418;52.694;13.294;2022-08-25T11:30:52;24.90;99.90
18577;DHT22;9418;52.694;13.294;2022-08-25T11:33:23;24.80;99.90
18577;DHT22;9418;52.694;13.294;2022-08-25T11:35:53;24.90;99.90
18577;DHT22;9418;52.694;13.294;2022-08-25T11:38:36;25.10;99.90
18577;DHT22;9418;52.694;13.294;2022-08-25T11:41:13;25.20;99.90
18577;DHT22;9418;52.694;13.294;2022-08-25T11:44:00;25.20;99.90
18577;DHT22;9418;52.694;13.294;2022-08-25T11:46:48;25.30;99.90
18577;DHT22;9418;52.694;13.294;2022-08-25T11:49:29;25.40;99.90
18577;DHT22;9418;52.694;13.294;2022-08-25T11:52:03;25.50;99.90
18577;DHT22;9418;52.694;13.294;2022-08-25T11:54:36;25.70;99.90
18577;DHT22;9418;52.694;13.294;2022-08-25T11:57:07;25.80;99.90
18577;DHT22;9418;52.694;13.294;2022-08-25T12:00:09;25.90;99.90
18577;DHT22;9418;52.694;13.294;2022-08-25T12:02:40;25.80;99.90
18577;DHT22;9418;52.694;13.294;2022-08-25T12:05:09;25.70;99.90
18577;DHT22;9418;52.694;13.294;2022-08-25T12:07:59;25.50;99.90
18577;DHT22;9418;52.694;13.294;2022-08-25T12:11:00;25.50;99.90
18577;DHT22;9418;52.694;13.294;2022-08-25T12:13:43;25.60;99.90
18577;DHT22;9418;52.694;13.294;2022-08-25T12:16:37;25.60;99.90
18577;DHT22;9418;52.694;13.294;2022-08-25T12:19:26;25.60;99.90
18577;DHT22;9418;52.694;13.294;2022-08-25T12:21:54;25.60;99.90
18577;DHT22;9418;52.694;13.294;2022-08-25T12:24:36;25.50;99.90
18577;DHT22;9418;52.694;13.294;2022-08-25T12:27:21;25.40;99.90
18577;DHT22;9418;52.694;13.294;2022-08-25T12:29:52;25.30;99.90
18577;DHT22;9418;52.694;13.294;2022-08-25T12:32:32;25.30;99.90
18577;DHT22;9418;52.694;13.294;2022-08-25T12:35:20;25.40;99.90
18577;DHT22;9418;52.694;13.294;2022-08-25T12:37:57;25.60;99.90
18577;DHT22;9418;52.694;13.294;2022-08-25T12:40:28;25.80;99.90
18577;DHT22;9418;52.694;13.294;2022-08-25T12:43:06;26.10;99.90
18577;DHT22;9418;52.694;13.294;2022-08-25T12:45:37;26.10;84.40
18577;DHT22;9418;52.694;13.294;2022-08-25T12:51:15;26.40;27.20
18577;DHT22;9418;52.694;13.294;2022-08-25T12:53:45;26.60;39.80
18577;DHT22;9418;52.694;13.294;2022-08-25T12:56:28;26.70;41.60
18577;DHT22;9418;52.694;13.294;2022-08-25T12:59:10;26.90;54.20
18577;DHT22;9418;52.694;13.294;2022-08-25T13:01:57;26.90;55.80
18577;DHT22;9418;52.694;13.294;2022-08-25T13:05:00;26.70;71.70
18577;DHT22;9418;52.694;13.294;2022-08-25T13:07:45;26.40;70.20
18577;DHT22;9418;52.694;13.294;2022-08-25T13:10:23;26.40;43.20
18577;DHT22;9418;52.694;13.294;2022-08-25T13:12:57;26.30;45.40
18577;DHT22;9418;52.694;13.294;2022-08-25T13:15:33;26.20;50.60
18577;DHT22;9418;52.694;13.294;2022-08-25T13:18:21;26.30;41.50
18577;DHT22;9418;52.694;13.294;2022-08-25T13:20:51;26.60;45.60
18577;DHT22;9418;52.694;13.294;2022-08-25T13:23:23;26.80;51.00
18577;DHT22;9418;52.694;13.294;2022-08-25T13:25:52;27.00;64.90
18577;DHT22;9418;52.694;13.294;2022-08-25T13:28:23;26.80;71.60
18577;DHT22;9418;52.694;13.294;2022-08-25T13:30:59;26.70;70.60
18577;DHT22;9418;52.694;13.294;2022-08-25T13:33:26;26.70;67.30
18577;DHT22;9418;52.694;13.294;2022-08-25T13:35:54;26.80;53.90
18577;DHT22;9418;52.694;13.294;2022-08-25T13:38:42;27.00;62.00
18577;DHT22;9418;52.694;13.294;2022-08-25T13:41:08;27.10;72.90
18577;DHT22;9418;52.694;13.294;2022-08-25T13:43:36;27.30;80.80
18577;DHT22;9418;52.694;13.294;2022-08-25T13:46:05;27.40;80.70
18577;DHT22;9418;52.694;13.294;2022-08-25T13:48:34;27.50;92.40
18577;DHT22;9418;52.694;13.294;2022-08-25T13:51:15;27.60;97.50
18577;DHT22;9418;52.694;13.294;2022-08-25T13:53:48;27.50;99.90
18577;DHT22;9418;52.694;13.294;2022-08-25T13:56:23;27.60;99.90
18577;DHT22;9418;52.694;13.294;2022-08-25T13:58:49;27.50;99.80
18577;DHT22;9418;52.694;13.294;2022-08-25T14:01:20;27.60;99.90
18577;DHT22;9418;52.694;13.294;2022-08-25T14:03:49;27.60;99.90
18577;DHT22;9418;52.694;13.294;2022-08-25T14:06:19;27.40;99.90
18577;DHT22;9418;52.694;13.294;2022-08-25T14:09:01;27.50;99.90
18577;DHT22;9418;52.694;13.294;2022-08-25T14:11:30;27.40;99.90
18577;DHT22;9418;52.694;13.294;2022-08-25T14:13:59;27.40;99.90
18577;DHT22;9418;52.694;13.294;2022-08-25T14:16:28;27.50;99.90
18577;DHT22;9418;52.694;13.294;2022-08-25T14:18:57;27.60;99.90
18577;DHT22;9418;52.694;13.294;2022-08-25T14:21:28;27.60;99.90
18577;DHT22;9418;52.694;13.294;2022-08-25T14:23:56;27.40;99.90
18577;DHT22;9418;52.694;13.294;2022-08-25T14:26:24;27.40;99.90
18577;DHT22;9418;52.694;13.294;2022-08-25T14:28:50;27.50;99.90
18577;DHT22;9418;52.694;13.294;2022-08-25T14:31:21;27.60;99.90
18577;DHT22;9418;52.694;13.294;2022-08-25T14:33:54;27.80;99.90
18577;DHT22;9418;52.694;13.294;2022-08-25T14:36:21;27.90;99.90
18577;DHT22;9418;52.694;13.294;2022-08-25T14:38:48;27.80;99.90
18577;DHT22;9418;52.694;13.294;2022-08-25T14:41:14;27.50;99.90
18577;DHT22;9418;52.694;13.294;2022-08-25T14:43:41;27.20;99.90
18577;DHT22;9418;52.694;13.294;2022-08-25T14:46:11;27.00;99.90
18577;DHT22;9418;52.694;13.294;2022-08-25T14:48:41;26.70;95.60
18577;DHT22;9418;52.694;13.294;2022-08-25T14:51:11;26.50;92.20
18577;DHT22;9418;52.694;13.294;2022-08-25T14:53:39;26.40;84.30
18577;DHT22;9418;52.694;13.294;2022-08-25T14:56:06;26.20;81.70
18577;DHT22;9418;52.694;13.294;2022-08-25T14:58:34;26.10;72.60
18577;DHT22;9418;52.694;13.294;2022-08-25T15:01:02;26.00;64.00
18577;DHT22;9418;52.694;13.294;2022-08-25T15:03:33;26.10;65.60
18577;DHT22;9418;52.694;13.294;2022-08-25T15:06:01;26.20;67.60
18577;DHT22;9418;52.694;13.294;2022-08-25T15:08:30;26.40;70.30
18577;DHT22;9418;52.694;13.294;2022-08-25T15:11:14;26.50;81.70
18577;DHT22;9418;52.694;13.294;2022-08-25T15:13:41;26.70;87.40
18577;DHT22;9418;52.694;13.294;2022-08-25T15:16:10;26.90;95.60
18577;DHT22;9418;52.694;13.294;2022-08-25T15:18:39;27.00;98.80
18577;DHT22;9418;52.694;13.294;2022-08-25T15:21:05;27.00;99.90
18577;DHT22;9418;52.694;13.294;2022-08-25T15:23:34;27.00;99.90
18577;DHT22;9418;52.694;13.294;2022-08-25T15:26:00;27.00;99.90
18577;DHT22;9418;52.694;13.294;2022-08-25T15:28:27;27.00;99.90
18577;DHT22;9418;52.694;13.294;2022-08-25T15:30:54;26.90;99.90
18577;DHT22;9418;52.694;13.294;2022-08-25T15:33:20;26.90;99.90
18577;DHT22;9418;52.694;13.294;2022-08-25T15:35:48;26.90;99.90
18577;DHT22;9418;52.694;13.294;2022-08-25T15:38:14;26.90;99.70
18577;DHT22;9418;52.694;13.294;2022-08-25T15:40:42;26.90;99.60
18577;DHT22;9418;52.694;13.294;2022-08-25T15:43:09;26.90;99.90
18577;DHT22;9418;52.694;13.294;2022-08-25T15:45:35;26.90;99.90
18577;DHT22;9418;52.694;13.294;2022-08-25T15:48:03;26.90;99.90
18577;DHT22;9418;52.694;13.294;2022-08-25T15:50:29;26.90;99.90
18577;DHT22;9418;52.694;13.294;2022-08-25T15:52:56;26.90;99.90